Time;durP1;ratioP1;P1;durP2;ratioP2;P2;SDS_P1;SDS_P2;PMS_P1;PMS_P2;Temp;Humidity;BMP_temperature;BMP_pressure;BME280_temperature;BME280_humidity;BME280_pressure;Samples;Min_cycle;Max_cycle;Signal;HPM_P1;HPM_P2
2022/05/10 00:01:57;;;;;;;17.95;9.68;;;;;;;12.13;100.00;98597.06;5100689;28;20080;-82
2022/05/10 00:04:22;;;;;;;18.05;11.07;;;;;;;12.21;100.00;98601.94;5100288;28;20005;-86
2022/05/10 00:06:50;;;;;;;11.75;8.13;;;;;;;12.25;100.00;98600.22;5133842;28;20088;-86
2022/05/10 00:09:20;;;;;;;19.40;9.73;;;;;;;12.18;100.00;98588.78;5100383;28;20052;-83
2022/05/10 00:11:46;;;;;;;17.38;11.30;;;;;;;12.16;100.00;98591.81;5100875;28;20024;-82
2022/05/10 00:14:12;;;;;;;16.95;11.05;;;;;;;12.10;100.00;98592.97;5100398;28;20024;-80
2022/05/10 00:16:43;;;;;;;17.73;10.65;;;;;;;12.05;100.00;98600.44;5101079;28;20084;-80
2022/05/10 00:19:12;;;;;;;23.95;10.60;;;;;;;12.01;100.00;98589.22;5100887;28;20028;-85
2022/05/10 00:21:38;;;;;;;19.70;11.45;;;;;;;12.02;100.00;98598.28;5100115;28;20084;-84
2022/05/10 00:24:03;;;;;;;18.65;11.23;;;;;;;11.95;100.00;98586.81;5083543;28;20012;-82
2022/05/10 00:26:29;;;;;;;20.40;12.77;;;;;;;11.87;100.00;98579.22;5100407;28;20130;-83
2022/05/10 00:28:54;;;;;;;18.90;11.18;;;;;;;11.99;100.00;98582.41;5099834;28;20016;-85
2022/05/10 00:31:20;;;;;;;20.00;11.95;;;;;;;11.99;100.00;98587.88;5099790;28;21009;-86
2022/05/10 00:33:46;;;;;;;19.23;12.27;;;;;;;12.02;100.00;98588.13;5100124;28;20017;-80
2022/05/10 00:36:14;;;;;;;18.45;11.52;;;;;;;11.98;100.00;98586.22;5100149;28;20093;-84
2022/05/10 00:38:41;;;;;;;17.70;10.85;;;;;;;11.92;100.00;98587.38;5100231;28;20013;-86
2022/05/10 00:41:26;;;;;;;26.25;11.68;;;;;;;11.77;100.00;98575.47;5099718;28;20071;-81
2022/05/10 00:43:59;;;;;;;19.67;11.77;;;;;;;11.85;100.00;98584.16;5100496;28;20051;-80
2022/05/10 00:46:36;;;;;;;18.00;11.13;;;;;;;11.81;100.00;98565.53;5133903;28;20025;-83
2022/05/10 00:49:16;;;;;;;16.98;11.95;;;;;;;11.85;100.00;98574.03;5099452;28;20008;-82
2022/05/10 00:51:44;;;;;;;21.40;11.45;;;;;;;11.85;100.00;98576.75;5100173;28;20013;-83
2022/05/10 00:54:22;;;;;;;22.25;12.52;;;;;;;11.84;100.00;98577.06;5099570;28;20084;-87
2022/05/10 00:56:55;;;;;;;18.80;10.95;;;;;;;11.70;100.00;98580.47;5099928;28;20055;-83
2022/05/10 00:59:29;;;;;;;17.25;10.90;;;;;;;11.67;100.00;98574.69;5098855;28;20012;-83
2022/05/10 01:02:41;;;;;;;17.13;10.32;;;;;;;11.47;100.00;98558.41;5133424;28;20021;-84
2022/05/10 01:05:23;;;;;;;15.68;9.32;;;;;;;11.43;100.00;98573.81;5053650;28;20032;-85
2022/05/10 01:07:58;;;;;;;17.85;9.43;;;;;;;11.32;100.00;98575.78;5099955;28;20043;-84
2022/05/10 01:10:32;;;;;;;13.98;8.60;;;;;;;11.26;100.00;98569.53;5099190;28;20017;-82
2022/05/10 01:13:13;;;;;;;19.17;8.93;;;;;;;11.16;100.00;98569.59;5099052;28;20040;-82
2022/05/10 01:15:42;;;;;;;17.02;9.57;;;;;;;11.10;100.00;98569.91;5097561;28;20015;-86
2022/05/10 01:18:08;;;;;;;18.40;8.77;;;;;;;11.09;100.00;98569.09;5100022;28;20092;-81
2022/05/10 01:20:43;;;;;;;15.95;8.98;;;;;;;11.19;100.00;98566.28;5099037;28;20020;-79
2022/05/10 01:23:23;;;;;;;17.73;9.85;;;;;;;11.42;100.00;98572.16;5099247;28;20067;-83
2022/05/10 01:26:28;;;;;;;16.23;9.57;;;;;;;11.46;100.00;98565.03;5099384;28;20024;-79
2022/05/10 01:29:02;;;;;;;13.88;9.77;;;;;;;11.33;100.00;98558.25;5085654;28;20037;-80
2022/05/10 01:31:32;;;;;;;19.52;10.80;;;;;;;11.31;100.00;98565.13;5098766;28;20009;-78
2022/05/10 01:34:06;;;;;;;18.90;11.55;;;;;;;11.23;100.00;98570.09;5099065;28;20011;-80
2022/05/10 01:36:47;;;;;;;15.95;9.18;;;;;;;11.29;100.00;98574.44;5099476;28;20017;-80
2022/05/10 01:39:24;;;;;;;16.75;11.05;;;;;;;11.29;100.00;98562.66;5099356;28;20015;-85
2022/05/10 01:42:03;;;;;;;16.77;10.02;;;;;;;11.25;100.00;98565.16;5098623;28;20047;-82
2022/05/10 01:44:40;;;;;;;17.40;9.80;;;;;;;11.09;100.00;98552.66;5099102;28;20048;-81
2022/05/10 01:47:39;;;;;;;19.77;10.15;;;;;;;11.02;100.00;98551.38;5099522;28;20011;-82
2022/05/10 01:50:13;;;;;;;20.52;9.70;;;;;;;10.94;100.00;98544.56;5098368;28;20039;-80
2022/05/10 01:53:07;;;;;;;17.63;10.30;;;;;;;10.93;100.00;98542.91;5098911;28;20017;-85
2022/05/10 01:55:36;;;;;;;19.30;9.05;;;;;;;11.04;100.00;98552.72;5099156;28;20031;-82
2022/05/10 01:58:07;;;;;;;20.33;9.93;;;;;;;11.08;100.00;98544.75;5098445;28;20005;-81
2022/05/10 02:00:33;;;;;;;19.23;9.90;;;;;;;11.05;100.00;98540.66;5098336;28;20024;-84
2022/05/10 02:03:38;;;;;;;22.50;10.68;;;;;;;11.03;100.00;98552.97;5098309;28;20027;-81
2022/05/10 02:06:42;;;;;;;17.67;9.25;;;;;;;11.04;100.00;98554.63;5061460;28;20088;-81
2022/05/10 02:09:17;;;;;;;16.70;9.25;;;;;;;11.05;100.00;98540.66;5092118;28;20084;-85
2022/05/10 02:12:11;;;;;;;15.50;9.48;;;;;;;11.04;100.00;98540.94;5098695;28;20039;-86
2022/05/10 02:14:50;;;;;;;19.67;9.30;;;;;;;11.04;100.00;98544.50;5098672;28;20039;-81
2022/05/10 02:17:20;;;;;;;18.75;9.57;;;;;;;11.10;100.00;98548.00;5098638;28;20004;-80
2022/05/10 02:19:52;;;;;;;16.73;9.90;;;;;;;11.06;100.00;98550.50;5098634;28;20016;-79
2022/05/10 02:22:49;;;;;;;14.32;9.63;;;;;;;11.06;100.00;98553.22;5097997;28;20032;-80
2022/05/10 02:25:19;;;;;;;18.77;10.48;;;;;;;10.99;100.00;98557.41;5096666;28;20028;-80
2022/05/10 02:27:55;;;;;;;19.65;10.07;;;;;;;11.01;100.00;98557.94;5098507;28;20046;-80
2022/05/10 02:30:24;;;;;;;17.35;9.77;;;;;;;10.86;100.00;98547.91;5098240;28;20035;-80
2022/05/10 02:33:09;;;;;;;18.02;10.02;;;;;;;10.85;100.00;98550.91;5097758;28;20013;-80
2022/05/10 02:35:57;;;;;;;15.38;8.85;;;;;;;10.77;100.00;98551.50;5098245;28;20020;-84
2022/05/10 02:38:25;;;;;;;17.55;10.27;;;;;;;10.66;100.00;98548.81;5097681;28;20031;-80
2022/05/10 02:40:53;;;;;;;16.20;9.32;;;;;;;10.62;100.00;98546.91;5097721;28;20019;-80
2022/05/10 02:43:32;;;;;;;14.23;9.20;;;;;;;10.61;100.00;98550.75;5098011;28;20072;-79
2022/05/10 02:45:58;;;;;;;17.40;9.00;;;;;;;10.64;100.00;98550.19;5098324;28;20042;-83
2022/05/10 02:48:25;;;;;;;15.50;9.63;;;;;;;10.65;100.00;98546.38;5098544;28;20013;-82
2022/05/10 02:50:50;;;;;;;14.52;9.45;;;;;;;10.61;100.00;98532.44;5098362;28;20016;-82
2022/05/10 02:53:16;;;;;;;18.60;11.23;;;;;;;10.67;100.00;98546.91;5097832;28;20072;-82
2022/05/10 02:55:55;;;;;;;17.02;11.50;;;;;;;10.61;100.00;98546.13;5097576;28;20096;-80
2022/05/10 02:58:41;;;;;;;22.83;11.85;;;;;;;10.56;100.00;98543.38;5097700;28;20008;-79
2022/05/10 03:01:10;;;;;;;;;;;;;;;10.53;100.00;98546.69;5097305;28;20067;-84
2022/05/10 03:03:36;;;;;;;18.70;10.88;;;;;;;10.55;100.00;98541.78;5098099;28;19901;-79
2022/05/10 03:06:02;;;;;;;19.55;11.10;;;;;;;10.64;100.00;98545.56;5098132;28;20028;-83
2022/05/10 03:08:28;;;;;;;20.65;11.35;;;;;;;10.60;100.00;98538.19;5098079;28;20008;-88
2022/05/10 03:10:53;;;;;;;19.63;11.52;;;;;;;10.64;100.00;98539.25;5097881;28;20046;-81
2022/05/10 03:13:19;;;;;;;17.65;10.70;;;;;;;10.74;100.00;98534.53;5097911;28;20008;-82
2022/05/10 03:15:44;;;;;;;19.92;11.73;;;;;;;10.73;100.00;98534.84;5097909;28;20072;-83
2022/05/10 03:18:10;;;;;;;15.35;10.45;;;;;;;10.63;100.00;98530.22;5098279;28;20013;-79
2022/05/10 03:20:35;;;;;;;19.45;10.82;;;;;;;10.65;100.00;98540.91;5097400;28;20100;-80
2022/05/10 03:23:01;;;;;;;18.48;11.20;;;;;;;10.55;100.00;98527.28;5097968;28;20076;-85
2022/05/10 03:25:30;;;;;;;17.15;11.65;;;;;;;10.50;100.00;98528.09;5097178;28;20020;-79
2022/05/10 03:27:58;;;;;;;17.17;10.63;;;;;;;10.40;100.00;98525.41;5097843;28;20036;-85
2022/05/10 03:30:25;;;;;;;23.23;11.15;;;;;;;10.42;100.00;98531.44;5131095;28;20029;-79
2022/05/10 03:32:52;;;;;;;19.70;10.25;;;;;;;10.28;100.00;98522.16;5097365;28;20017;-86
2022/05/10 03:35:18;;;;;;;16.92;10.27;;;;;;;10.23;100.00;98521.38;5097328;28;20040;-80
2022/05/10 03:37:43;;;;;;;16.83;9.65;;;;;;;10.32;100.00;98534.19;5097684;28;20019;-79
2022/05/10 03:40:10;;;;;;;16.20;9.70;;;;;;;10.30;100.00;98535.59;5097261;28;20019;-81
2022/05/10 03:42:48;;;;;;;16.00;9.95;;;;;;;10.18;100.00;98524.94;5097542;28;20044;-80
2022/05/10 03:45:14;;;;;;;15.80;9.32;;;;;;;10.26;100.00;98537.22;5097102;28;20055;-85
2022/05/10 03:55:22;;;;;;;19.10;9.68;;;;;;;10.28;100.00;98535.03;5098954;28;20045;-80
2022/05/10 03:57:48;;;;;;;16.67;9.23;;;;;;;10.32;100.00;98522.44;5097298;28;20017;-79
2022/05/10 04:00:21;;;;;;;17.35;9.93;;;;;;;10.45;100.00;98528.13;5097232;28;20017;-81
2022/05/10 04:02:46;;;;;;;16.20;9.13;;;;;;;10.53;100.00;98519.34;5097134;28;20044;-81
2022/05/10 04:05:13;;;;;;;15.38;10.10;;;;;;;10.77;100.00;98544.91;5099338;28;20027;-79
2022/05/10 04:07:38;;;;;;;18.48;8.35;;;;;;;10.93;100.00;98528.44;5100734;28;20132;-85
2022/05/10 04:10:05;;;;;;;15.55;9.05;;;;;;;11.15;100.00;98534.31;5100648;28;20005;-80
2022/05/10 04:12:31;;;;;;;17.23;8.65;;;;;;;11.36;100.00;98544.00;5101086;28;20050;-82
2022/05/10 04:14:57;;;;;;;19.85;9.32;;;;;;;11.41;100.00;98543.94;5100465;28;20008;-79
2022/05/10 04:17:22;;;;;;;19.00;9.60;;;;;;;11.55;100.00;98550.41;5101436;28;20039;-80
2022/05/10 04:19:48;;;;;;;17.48;9.23;;;;;;;11.57;100.00;98556.41;5100319;28;20016;-81
2022/05/10 04:22:14;;;;;;;17.55;9.32;;;;;;;11.61;100.00;98556.66;5100972;28;20031;-81
2022/05/10 04:24:39;;;;;;;14.45;8.43;;;;;;;11.74;100.00;98553.31;5100805;28;20020;-80
2022/05/10 04:27:05;;;;;;;15.02;9.38;;;;;;;11.84;100.00;98555.94;5100050;28;20076;-81
2022/05/10 04:29:30;;;;;;;15.18;8.05;;;;;;;11.77;100.00;98542.59;5100096;28;20009;-82
2022/05/10 04:31:56;;;;;;;14.63;8.05;;;;;;;12.04;100.00;98563.97;5100670;28;20013;-79
2022/05/10 04:34:21;;;;;;;14.15;7.65;;;;;;;12.03;100.00;98556.03;5098950;28;20024;-84
2022/05/10 04:36:47;;;;;;;11.88;8.13;;;;;;;12.10;100.00;98556.50;5097784;28;20033;-83
2022/05/10 04:39:12;;;;;;;14.32;8.73;;;;;;;12.47;100.00;98562.09;5099238;28;20005;-83
2022/05/10 04:41:43;;;;;;;19.35;8.43;;;;;;;13.13;100.00;98553.84;5091851;28;20039;-85
2022/05/10 04:44:10;;;;;;;14.38;8.75;;;;;;;13.32;100.00;98551.09;5094451;28;20061;-87
2022/05/10 04:46:39;;;;;;;17.17;9.30;;;;;;;13.08;100.00;98567.66;5093814;28;20074;-77
2022/05/10 04:49:06;;;;;;;14.18;8.85;;;;;;;12.71;100.00;98556.63;5070939;28;20024;-75
2022/05/10 04:51:33;;;;;;;16.98;9.43;;;;;;;12.46;100.00;98554.19;5072436;28;20058;-78
2022/05/10 04:53:59;;;;;;;12.80;8.27;;;;;;;12.21;100.00;98558.88;5072022;28;20021;-76
2022/05/10 04:56:24;;;;;;;18.58;10.15;;;;;;;12.05;100.00;98560.13;5075034;28;20023;-74
2022/05/10 04:58:54;;;;;;;18.77;9.30;;;;;;;12.19;100.00;98571.22;5073949;28;20032;-84
2022/05/10 05:01:22;;;;;;;19.13;9.32;;;;;;;12.43;100.00;98573.97;5078266;28;20017;-82
2022/05/10 05:03:48;;;;;;;15.70;9.18;;;;;;;12.41;100.00;98579.75;5072781;28;20024;-75
2022/05/10 05:06:14;;;;;;;18.10;10.43;;;;;;;12.51;100.00;98565.91;5072642;28;20115;-81
2022/05/10 05:08:40;;;;;;;18.77;9.60;;;;;;;12.63;100.00;98582.78;5082983;28;20050;-75
2022/05/10 05:11:05;;;;;;;14.60;9.80;;;;;;;12.69;100.00;98586.25;5112925;28;20076;-74
2022/05/10 05:13:31;;;;;;;17.02;10.30;;;;;;;13.00;100.00;98581.22;5112559;28;20665;-75
2022/05/10 05:15:57;;;;;;;16.33;10.73;;;;;;;12.98;100.00;98572.44;5112409;28;20019;-77
2022/05/10 05:18:22;;;;;;;15.65;10.70;;;;;;;13.41;100.00;98572.09;5112601;28;20031;-78
2022/05/10 05:20:49;;;;;;;16.08;10.23;;;;;;;13.34;100.00;98587.34;5116676;28;20027;-88
2022/05/10 05:23:17;;;;;;;19.60;10.07;;;;;;;13.39;100.00;98584.50;5116573;28;20046;-78
2022/05/10 05:25:43;;;;;;;17.77;10.30;;;;;;;13.53;100.00;98592.84;5115034;28;20032;-74
2022/05/10 05:28:09;;;;;;;14.63;8.38;;;;;;;13.91;100.00;98597.97;5110750;28;20022;-74
2022/05/10 05:30:35;;;;;;;15.43;9.13;;;;;;;14.05;100.00;98591.69;5110627;28;20472;-72
2022/05/10 05:33:01;;;;;;;15.40;9.13;;;;;;;13.75;100.00;98588.31;5111900;28;20035;-74
2022/05/10 05:35:26;;;;;;;16.13;8.70;;;;;;;13.97;100.00;98595.94;5111689;28;20483;-72
2022/05/10 05:37:54;;;;;;;15.40;8.80;;;;;;;14.09;100.00;98600.97;5113131;28;20036;-74
2022/05/10 05:40:20;;;;;;;13.45;9.13;;;;;;;13.98;100.00;98583.81;5112855;28;20023;-73
2022/05/10 05:42:47;;;;;;;11.80;8.30;;;;;;;14.35;100.00;98588.41;5111715;28;20028;-74
2022/05/10 05:45:14;;;;;;;17.33;9.63;;;;;;;14.24;100.00;98595.19;5110625;28;20043;-74
2022/05/10 05:47:40;;;;;;;17.63;9.75;;;;;;;14.29;100.00;98590.41;5112631;28;20058;-76
2022/05/10 05:50:07;;;;;;;18.50;10.82;;;;;;;14.35;100.00;98585.63;5113928;28;20478;-74
2022/05/10 05:52:33;;;;;;;16.23;10.25;;;;;;;14.57;100.00;98587.69;5113894;28;20027;-74
2022/05/10 05:54:58;;;;;;;22.88;9.30;;;;;;;14.88;100.00;98589.53;5085717;28;20036;-74
2022/05/10 05:57:24;;;;;;;13.85;9.43;;;;;;;15.10;100.00;98586.03;5070641;28;20024;-73
2022/05/10 05:59:53;;;;;;;12.98;8.98;;;;;;;15.34;100.00;98591.28;5070645;28;20031;-72
2022/05/10 06:02:20;;;;;;;15.00;8.20;;;;;;;15.37;100.00;98590.66;5088266;28;20516;-74
2022/05/10 06:04:46;;;;;;;15.70;9.13;;;;;;;15.46;100.00;98594.31;5111479;28;20020;-75
2022/05/10 06:07:13;;;;;;;18.80;9.82;;;;;;;15.21;100.00;98592.13;5102654;28;20063;-73
2022/05/10 06:09:40;;;;;;;18.88;9.85;;;;;;;14.69;100.00;98594.31;5089710;28;20009;-73
2022/05/10 06:12:07;;;;;;;14.38;9.57;;;;;;;14.71;100.00;98594.03;5089402;28;20017;-74
2022/05/10 06:14:34;;;;;;;15.00;9.52;;;;;;;15.14;100.00;98611.03;5089120;28;20020;-73
2022/05/10 06:17:00;;;;;;;16.88;9.15;;;;;;;15.20;100.00;98596.00;5088685;28;20015;-74
2022/05/10 06:19:27;;;;;;;13.40;9.02;;;;;;;15.46;100.00;98610.84;5089314;28;20024;-74
2022/05/10 06:21:54;;;;;;;17.33;10.52;;;;;;;15.78;100.00;98598.81;5087295;28;20016;-73
2022/05/10 06:24:20;;;;;;;15.52;9.60;;;;;;;15.79;100.00;98603.19;5088136;28;20392;-73
2022/05/10 06:26:45;;;;;;;16.23;9.95;;;;;;;15.87;100.00;98617.06;5087851;28;20035;-75
2022/05/10 06:29:11;;;;;;;19.55;10.45;;;;;;;15.90;100.00;98607.34;5089229;28;20031;-75
2022/05/10 06:31:40;;;;;;;16.90;10.52;;;;;;;15.86;100.00;98614.63;5089187;28;20027;-85
2022/05/10 06:34:05;;;;;;;12.23;9.10;;;;;;;16.71;97.62;98617.09;5089353;28;20028;-79
2022/05/10 06:36:31;;;;;;;17.17;10.43;;;;;;;16.80;95.64;98617.13;5093967;28;20024;-76
2022/05/10 06:38:56;;;;;;;15.18;9.45;;;;;;;16.67;97.10;98618.03;5092465;28;20069;-80
2022/05/10 06:41:21;;;;;;;16.00;9.30;;;;;;;16.79;95.96;98608.00;5092365;28;20024;-84
2022/05/10 06:43:47;;;;;;;15.55;10.07;;;;;;;16.59;97.38;98614.13;5092912;28;20028;-80
2022/05/10 06:46:16;;;;;;;17.90;9.98;;;;;;;16.69;95.46;98611.09;5089560;28;20048;-85
2022/05/10 06:48:45;;;;;;;15.13;10.32;;;;;;;16.79;94.71;98609.97;5091995;28;20113;-85
2022/05/10 06:51:12;;;;;;;20.52;10.77;;;;;;;16.56;98.37;98612.00;5090999;28;20032;-82
2022/05/10 06:53:39;;;;;;;14.88;10.18;;;;;;;16.97;95.07;98612.47;5095172;28;20035;-82
2022/05/10 06:56:05;;;;;;;15.52;9.90;;;;;;;16.99;93.92;98601.09;5105621;28;20059;-79
2022/05/10 06:58:31;;;;;;;16.02;10.68;;;;;;;16.91;93.27;98607.41;5116330;28;20044;-83
2022/05/10 07:00:57;;;;;;;14.30;10.32;;;;;;;16.93;93.40;98599.63;5117148;28;20026;-85
2022/05/10 07:03:26;;;;;;;14.02;9.27;;;;;;;17.20;93.22;98601.31;5115087;28;20095;-84
2022/05/10 07:05:52;;;;;;;14.85;9.70;;;;;;;17.53;90.66;98602.50;5114453;28;20034;-82
2022/05/10 07:08:18;;;;;;;14.77;9.32;;;;;;;17.53;89.46;98605.25;5102370;28;20028;-88
2022/05/10 07:10:44;;;;;;;18.67;10.15;;;;;;;17.00;92.11;98602.72;5096972;28;20055;-90
2022/05/10 07:13:14;;;;;;;15.32;10.00;;;;;;;17.42;89.80;98596.44;5098821;28;20040;-82
2022/05/10 07:15:41;;;;;;;20.67;10.40;;;;;;;17.75;86.65;98598.78;5108562;28;20024;-81
2022/05/10 07:18:06;;;;;;;16.75;10.55;;;;;;;17.65;87.44;98594.38;5098808;28;20046;-86
2022/05/10 07:20:32;;;;;;;16.92;10.30;;;;;;;17.58;87.48;98600.41;5100168;28;20564;-78
2022/05/10 07:22:57;;;;;;;15.57;9.93;;;;;;;17.79;85.73;98599.75;5077396;28;20103;-82
2022/05/10 07:25:25;;;;;;;13.85;9.18;;;;;;;18.22;82.88;98596.91;5097747;28;20039;-75
2022/05/10 07:27:50;;;;;;;16.63;9.38;;;;;;;18.32;81.71;98593.81;5097432;28;20025;-78
2022/05/10 07:30:16;;;;;;;13.30;8.85;;;;;;;18.28;79.67;98601.13;5093213;28;20031;-76
2022/05/10 07:32:42;;;;;;;17.02;9.77;;;;;;;18.37;80.54;98601.94;5089945;28;20043;-87
2022/05/10 07:35:09;;;;;;;15.32;8.75;;;;;;;18.51;79.74;98608.13;5097846;28;20083;-86
2022/05/10 07:37:34;;;;;;;20.42;11.15;;;;;;;18.77;79.26;98606.06;5100045;28;20055;-84
2022/05/10 07:40:01;;;;;;;13.02;9.63;;;;;;;19.15;76.99;98604.06;5096437;28;20424;-78
2022/05/10 07:42:27;;;;;;;14.63;9.07;;;;;;;19.18;76.09;98606.16;5093133;28;20043;-79
2022/05/10 07:44:53;;;;;;;14.75;8.63;;;;;;;19.37;76.19;98594.63;5089789;28;20040;-80
2022/05/10 07:47:18;;;;;;;17.98;9.02;;;;;;;19.49;76.71;98603.06;5096139;28;20040;-79
2022/05/10 07:49:44;;;;;;;18.55;9.55;;;;;;;20.08;71.98;98598.13;5092607;28;20028;-79
2022/05/10 07:52:10;;;;;;;16.45;8.77;;;;;;;20.57;70.04;98606.66;5098783;28;20024;-82
2022/05/10 07:54:36;;;;;;;14.75;7.55;;;;;;;20.54;71.73;98604.56;5087236;28;20570;-77
2022/05/10 07:57:03;;;;;;;12.82;7.45;;;;;;;21.14;67.85;98603.81;5090657;28;20024;-77
2022/05/10 07:59:29;;;;;;;12.38;7.70;;;;;;;22.36;62.99;98596.75;5096016;28;20067;-86
2022/05/10 08:01:55;;;;;;;17.05;10.05;;;;;;;23.72;57.28;98602.53;5084945;28;20045;-82
2022/05/10 08:04:20;;;;;;;12.38;6.90;;;;;;;25.61;51.85;98602.88;5075891;28;20029;-74
2022/05/10 08:06:46;;;;;;;16.98;8.20;;;;;;;27.16;47.08;98601.06;5083940;28;20040;-75
2022/05/10 08:09:12;;;;;;;10.90;6.65;;;;;;;28.48;41.26;98607.06;5089405;28;20469;-78
2022/05/10 08:11:38;;;;;;;18.30;7.80;;;;;;;28.87;39.23;98601.53;5089921;28;20111;-79
2022/05/10 08:14:03;;;;;;;14.32;7.63;;;;;;;29.22;38.57;98612.84;5087337;28;20036;-82
2022/05/10 08:16:31;;;;;;;10.48;6.55;;;;;;;28.51;38.74;98607.06;5093699;28;20024;-81
2022/05/10 08:18:56;;;;;;;9.85;6.70;;;;;;;29.40;36.89;98608.03;5099659;28;20016;-82
2022/05/10 08:21:22;;;;;;;13.57;7.10;;;;;;;29.43;36.87;98598.75;5095864;28;20024;-80
2022/05/10 08:23:49;;;;;;;9.48;6.38;;;;;;;29.50;36.25;98595.13;5094246;28;20027;-81
2022/05/10 08:26:14;;;;;;;11.52;6.20;;;;;;;30.01;35.81;98595.41;5095898;28;20135;-80
2022/05/10 08:28:39;;;;;;;14.18;6.93;;;;;;;31.20;34.11;98595.16;5097764;28;20078;-82
2022/05/10 08:31:07;;;;;;;10.35;5.13;;;;;;;32.33;32.24;98593.97;5098071;28;20027;-79
2022/05/10 08:33:36;;;;;;;10.13;6.07;;;;;;;31.94;32.24;98587.97;5110139;28;20031;-84
2022/05/10 08:36:02;;;;;;;13.90;6.40;;;;;;;32.28;31.37;98592.41;5105607;28;20039;-87
2022/05/10 08:38:30;;;;;;;61.33;7.57;;;;;;;33.39;29.41;98589.56;5115020;28;20052;-86
2022/05/10 08:40:59;;;;;;;9.77;5.78;;;;;;;33.63;29.74;98588.34;5113924;28;20032;-84
2022/05/10 08:43:47;;;;;;;10.63;5.43;;;;;;;33.32;29.54;98586.84;5114274;28;20396;-82
2022/05/10 08:46:16;;;;;;;10.30;4.47;;;;;;;32.54;30.14;98576.69;5114417;28;20048;-85
2022/05/10 08:48:45;;;;;;;13.43;6.13;;;;;;;32.47;31.24;98576.78;5102397;28;20433;-80
2022/05/10 08:51:11;;;;;;;8.98;5.57;;;;;;;32.33;30.49;98576.97;5098893;28;20047;-79
2022/05/10 08:53:40;;;;;;;7.32;5.15;;;;;;;33.46;28.61;98575.22;5095171;28;20012;-82
2022/05/10 08:56:17;;;;;;;10.20;5.28;;;;;;;33.38;27.84;98579.44;5104918;28;20040;-83
2022/05/10 08:59:04;;;;;;;5.53;4.63;;;;;;;33.07;28.25;98573.06;5115957;28;20018;-80
2022/05/10 09:01:35;;;;;;;9.13;5.03;;;;;;;33.19;28.64;98571.66;5114460;28;20061;-85
2022/05/10 09:04:17;;;;;;;7.70;5.65;;;;;;;31.59;30.57;98564.50;5113857;28;20019;-82
2022/05/10 09:07:00;;;;;;;11.00;5.68;;;;;;;29.66;33.42;98570.91;5100461;28;20031;-83
2022/05/10 09:09:32;;;;;;;9.82;4.95;;;;;;;31.20;31.42;98556.34;5104132;28;20512;-82
2022/05/10 09:12:10;;;;;;;7.90;5.18;;;;;;;31.59;30.89;98561.66;5107331;28;20054;-81
2022/05/10 09:14:57;;;;;;;6.93;4.60;;;;;;;31.66;30.61;98563.63;5105998;28;20026;-81
2022/05/10 09:17:27;;;;;;;8.73;4.80;;;;;;;30.39;32.14;98556.09;5093616;28;20043;-78
2022/05/10 09:19:53;;;;;;;7.22;5.18;;;;;;;32.07;30.75;98552.25;5089064;28;20047;-77
2022/05/10 09:22:33;;;;;;;9.90;5.00;;;;;;;30.80;31.96;98546.56;5091965;28;20461;-82
2022/05/10 09:24:59;;;;;;;7.90;5.18;;;;;;;29.59;33.51;98545.53;5095138;28;20028;-78
2022/05/10 09:27:32;;;;;;;9.68;5.38;;;;;;;31.70;31.21;98542.53;5100227;28;20441;-82
2022/05/10 09:29:58;;;;;;;11.23;7.88;;;;;;;32.76;29.75;98538.31;5089998;28;20028;-77
2022/05/10 09:35:24;;;;;;;8.10;4.57;;;;;;;30.95;30.70;98532.38;5100173;28;20042;-79
2022/05/10 09:37:59;;;;;;;6.80;4.50;;;;;;;31.18;30.38;98529.72;5098445;28;20020;-79
2022/05/10 09:40:43;;;;;;;5.53;4.10;;;;;;;31.45;29.29;98529.88;5097766;28;20032;-81
2022/05/10 09:43:26;;;;;;;9.05;4.63;;;;;;;31.30;30.41;98530.00;5092214;28;20024;-79
2022/05/10 09:46:20;;;;;;;7.70;4.50;;;;;;;31.57;29.47;98529.34;5095212;28;20044;-82
2022/05/10 09:48:47;;;;;;;9.52;7.03;;;;;;;32.68;27.86;98531.16;5102878;28;20032;-80
2022/05/10 09:51:31;;;;;;;6.30;4.35;;;;;;;34.36;26.18;98531.28;5095046;28;20028;-80
2022/05/10 09:53:57;;;;;;;9.70;5.05;;;;;;;33.54;26.71;98522.78;5095834;28;20476;-78
2022/05/10 09:56:42;;;;;;;5.55;4.22;;;;;;;28.48;33.03;98500.88;5100931;28;20031;-86
2022/05/10 09:59:20;;;;;;;6.78;4.47;;;;;;;31.16;30.30;98515.19;5094875;28;20115;-78
2022/05/10 10:01:48;;;;;;;7.65;4.47;;;;;;;30.43;30.88;98515.34;5095241;28;21466;-79
2022/05/10 10:04:31;;;;;;;7.70;4.35;;;;;;;31.39;29.64;98518.19;5090160;28;20036;-80
2022/05/10 10:07:05;;;;;;;8.73;4.15;;;;;;;32.60;27.45;98511.84;5090442;28;20028;-80
2022/05/10 10:09:33;;;;;;;10.63;4.50;;;;;;;34.21;25.29;98506.44;5097359;28;20052;-76
2022/05/10 10:12:00;;;;;;;8.15;3.95;;;;;;;33.79;25.26;98510.97;5100006;28;20016;-78
2022/05/10 10:14:46;;;;;;;5.72;3.70;;;;;;;33.25;26.14;98501.84;5106078;28;20016;-82
2022/05/10 10:17:23;;;;;;;6.68;4.05;;;;;;;31.13;28.61;98485.75;5110392;28;20114;-82
2022/05/10 10:20:01;;;;;;;5.05;3.97;;;;;;;30.65;28.81;98485.72;5101516;28;20388;-83
2022/05/10 10:22:33;;;;;;;5.35;3.97;;;;;;;29.33;31.42;98477.50;5100076;28;20081;-82
2022/05/10 10:25:21;;;;;;;7.78;4.07;;;;;;;28.76;31.87;98465.53;5100438;28;20016;-82
2022/05/10 10:28:24;;;;;;;6.45;4.00;;;;;;;29.86;30.79;98454.75;5086827;28;20781;-78
2022/05/10 10:30:52;;;;;;;6.68;4.15;;;;;;;28.95;31.16;98456.63;5068623;28;20115;-80
2022/05/10 10:33:18;;;;;;;7.65;4.13;;;;;;;29.45;30.24;98457.34;5100029;28;20024;-80
2022/05/10 10:35:54;;;;;;;7.20;4.05;;;;;;;28.26;32.09;98450.56;5089352;28;20024;-80
2022/05/10 10:38:31;;;;;;;6.38;4.00;;;;;;;26.86;34.74;98446.75;5095531;28;20035;-87
2022/05/10 10:41:13;;;;;;;7.25;4.43;;;;;;;26.27;36.88;98440.25;5094223;28;20052;-79
2022/05/10 10:43:50;;;;;;;8.38;5.00;;;;;;;26.07;38.38;98430.41;5107745;28;20019;-81
2022/05/10 10:46:30;;;;;;;7.57;5.32;;;;;;;26.04;37.79;98423.56;5096396;28;20044;-84
2022/05/10 10:49:07;;;;;;;6.75;4.43;;;;;;;24.97;40.45;98429.06;5102362;28;20016;-85
2022/05/10 10:51:33;;;;;;;8.32;4.35;;;;;;;25.07;38.73;98426.78;5096915;28;20024;-85
2022/05/10 10:54:00;;;;;;;6.78;4.50;;;;;;;24.58;40.16;98426.84;5108987;28;20020;-82
2022/05/10 10:56:42;;;;;;;8.48;4.70;;;;;;;24.25;40.88;98422.72;5101232;28;20020;-82
2022/05/10 10:59:25;;;;;;;9.48;5.30;;;;;;;24.45;39.92;98413.06;5104843;28;20354;-82
2022/05/10 11:02:10;;;;;;;10.30;4.30;;;;;;;24.89;37.44;98413.34;5108363;28;19996;-83
2022/05/10 11:04:51;;;;;;;6.03;4.35;;;;;;;25.32;38.62;98392.31;5092294;28;20495;-81
2022/05/10 11:07:22;;;;;;;11.63;4.72;;;;;;;25.57;38.13;98403.84;5088130;28;20563;-82
2022/05/10 11:09:59;;;;;;;5.90;3.75;;;;;;;25.05;37.37;98393.56;5097006;28;20016;-81
2022/05/10 11:12:43;;;;;;;9.13;4.47;;;;;;;25.26;37.17;98393.03;5109664;28;20072;-82
2022/05/10 11:15:20;;;;;;;5.75;4.10;;;;;;;24.51;39.24;98388.38;5108809;28;20024;-83
2022/05/10 11:18:07;;;;;;;7.70;4.35;;;;;;;24.99;38.83;98383.91;5097958;28;20020;-80
2022/05/10 11:21:19;;;;;;;5.38;4.13;;;;;;;25.09;38.55;98385.22;5101383;28;20075;-83
2022/05/10 11:24:08;;;;;;;8.20;4.35;;;;;;;24.99;37.79;98372.69;5109933;28;20051;-84
2022/05/10 11:26:55;;;;;;;6.10;4.18;;;;;;;25.09;38.24;98374.84;5105396;28;20043;-82
2022/05/10 11:29:43;;;;;;;7.85;4.18;;;;;;;24.59;39.05;98369.72;5109282;28;20031;-87
2022/05/10 11:32:21;;;;;;;6.45;4.22;;;;;;;24.54;38.05;98365.22;5108662;28;20032;-81
2022/05/10 11:35:02;;;;;;;9.07;4.50;;;;;;;24.74;37.82;98357.53;5105467;28;20077;-77
2022/05/10 11:37:35;;;;;;;7.43;4.03;;;;;;;25.27;35.21;98359.06;5093855;28;20135;-79
2022/05/10 11:40:28;;;;;;;5.68;3.53;;;;;;;25.62;34.99;98352.25;5096425;28;20024;-78
2022/05/10 11:43:00;;;;;;;5.72;3.85;;;;;;;25.36;34.63;98350.34;5094078;28;20040;-80
2022/05/10 11:45:43;;;;;;;6.95;3.60;;;;;;;25.98;35.49;98354.19;5081692;28;20486;-82
2022/05/10 11:48:21;;;;;;;5.90;4.22;;;;;;;26.00;36.81;98349.03;5098184;28;20024;-83
2022/05/10 11:54:43;;;;;;;7.40;5.22;;;;;;;25.86;36.91;98340.47;5030560;28;20032;-85
2022/05/10 11:57:18;;;;;;;7.90;4.68;;;;;;;26.33;36.08;98342.50;5104926;28;20377;-85